עמוד ראשי
METAR-TAF:

METAR-TAF

שדות תעופה :

אנקורג', אלסקה, ארצות הברית

קו רוחב: 61-10-28N, קו אורך: 149-59-46W, גובה: 44מטר

תצפית מזג אוויר נוכחית

הדו"ח נערך לפני 53דקות, בשעה 10:53 UTC
רוח רגועה
טמפרטורת -1 צלסיוס
לחות 69%
לחץ 1029 hPa
ראות: 16.1קילומטר
שמיים נקיים

METAR: PANC 171053Z 00000KT 10SM CLR M01/M06 A3038 RMK AO2 SLP289 T10061056

זמן: 03:46 (11:46 UTC)

תחזית

הדו"ח נערך לפני 6 שעות ו 2דקות, בשעה 05:44 UTC
תחזית בתוקף מ 17 ב 06 UTC עד 18 ב 12 UTC
רוח 10קשר מכיוון דרום/דרום-מזרח
ראות: 10קילומטר
עננים פזורים בגובה 6000רגל
עננים בינוניים בגובה 20000רגל
זמנית מ -
17 ב 06 UTC עד 17 ב 08 UTC
רוח 12קשר מכיוון דרום/דרום-מזרח עם משבים עד 20קשר
מ 17 ב 1200UTC
רוח 6קשר מכיוון צפון
ראות: 10קילומטר
עננים פזורים בגובה 6000רגל
עננים בינוניים בגובה 12000רגל
מ 18 ב 0100UTC
רוח 15קשר מכיוון דרום/דרום-מזרח עם משבים עד 25קשר
ראות: 10קילומטר
עננים פזורים בגובה 6000רגל
עננים בינוניים בגובה 10000רגל

TAF: PANC 170544Z 1706/1812 15010KT P6SM SCT060 BKN200 TEMPO 1706/1708 15012G20KT FM171200 35006KT P6SM SCT060 BKN120 WS020/13020KT FM180100 16015G25KT P6SM SCT060 BKN100

תצפיות ותחזיות מזג אוויר לגבי יותר מ- 4,000 שדות תעופה ברחבי העולם. דוחות METAR ו- TAF.

התחנות הזמינות מסומנות בנקודות צהובות ואדומות על גבי המפה.

העבר את העכבר לנקודה הצבעונית על מנת לראות את שם התחנה.

לאחר מכן, לחץ כדי לראות את תוכן ואת תחזיות מזג האוויר.

כדי לשנות את המפה: לחץ על הכפתורים הירוקים עם הפלוס השחור כדי להתקרב; על הכפתור הירוק עם המקף כדי להתרחק; או בחיצים הירוקים למפות סמוכות.


METAR-TAF: